<?xml version='1.0' encoding='UTF-8'?><gpx version="1.1" creator="JPX - https://github.com/jenetics/jpx" xmlns="http://www.topografix.com/GPX/1/1"><trk><trkseg><trkpt lat="45.68866332931955" lon="11.00462576064401"><ele>1542.9999999999998</ele><time>2026-04-26T10:08:16.999Z</time></trkpt><trkpt lat="45.68871173578723" lon="11.004567119517503"><ele>1543.0</ele><time>2026-04-26T10:08:24.999Z</time></trkpt><trkpt lat="45.688759523376895" lon="11.004500810035635"><ele>1543.0</ele><time>2026-04-26T10:08:32.999Z</time></trkpt><trkpt lat="45.68880706619667" lon="11.004439716312739"><ele>1543.0</ele><time>2026-04-26T10:08:40.999Z</time></trkpt><trkpt lat="45.6888615752256" lon="11.004388529107874"><ele>1543.0</ele><time>2026-04-26T10:08:48.999Z</time></trkpt><trkpt lat="45.68890497948117" lon="11.004302815996663"><ele>1542.9999999999998</ele><time>2026-04-26T10:08:56.999Z</time></trkpt><trkpt lat="45.68894296277314" lon="11.004220532568201"><ele>1543.0</ele><time>2026-04-26T10:09:15.999Z</time></trkpt><trkpt lat="45.68898561684671" lon="11.004147559982474"><ele>1542.4285714285713</ele><time>2026-04-26T10:09:24.999Z</time></trkpt><trkpt lat="45.689029590282914" lon="11.00407399955526"><ele>1541.857142857143</ele><time>2026-04-26T10:09:32.999Z</time></trkpt><trkpt lat="45.689076511127936" lon="11.00399787181425"><ele>1541.2857142857142</ele><time>2026-04-26T10:09:41.999Z</time></trkpt><trkpt lat="45.68910946077166" lon="11.003906942299105"><ele>1540.7142857142858</ele><time>2026-04-26T10:09:49.999Z</time></trkpt><trkpt lat="45.68910249099243" lon="11.003803606736046"><ele>1540.142857142857</ele><time>2026-04-26T10:09:58.999Z</time></trkpt><trkpt lat="45.68914963041772" lon="11.003731743897855"><ele>1539.5714285714284</ele><time>2026-04-26T10:10:05.999Z</time></trkpt><trkpt lat="45.689190180339004" lon="11.00365323254821"><ele>1539.0</ele><time>2026-04-26T10:10:13.999Z</time></trkpt><trkpt lat="45.68923389249065" lon="11.003582867822956"><ele>1539.0</ele><time>2026-04-26T10:10:21.999Z</time></trkpt><trkpt lat="45.68928129342588" lon="11.003521981646825"><ele>1539.0</ele><time>2026-04-26T10:10:30.999Z</time></trkpt><trkpt lat="45.68933141143683" lon="11.003454327082695"><ele>1539.0</ele><time>2026-04-26T10:10:38.999Z</time></trkpt><trkpt lat="45.68938974093194" lon="11.003399885924699"><ele>1539.0</ele><time>2026-04-26T10:10:45.999Z</time></trkpt><trkpt lat="45.68944237965537" lon="11.0033494108257"><ele>1539.0</ele><time>2026-04-26T10:10:52.999Z</time></trkpt><trkpt lat="45.68950064283544" lon="11.003304590226131"><ele>1539.0</ele><time>2026-04-26T10:10:59.999Z</time></trkpt><trkpt lat="45.68954582288335" lon="11.003241155081326"><ele>1539.0</ele><time>2026-04-26T10:11:05.999Z</time></trkpt><trkpt lat="45.689610046257336" lon="11.003205317566563"><ele>1540.142857142857</ele><time>2026-04-26T10:11:12.999Z</time></trkpt><trkpt lat="45.68966628996626" lon="11.003154106571698"><ele>1541.2857142857142</ele><time>2026-04-26T10:11:17.999Z</time></trkpt><trkpt lat="45.68973098583005" lon="11.003120288109011"><ele>1542.4285714285716</ele><time>2026-04-26T10:11:24.999Z</time></trkpt><trkpt lat="45.689778910732834" lon="11.003033942875222"><ele>1543.5714285714284</ele><time>2026-04-26T10:11:30.999Z</time></trkpt><trkpt lat="45.689843194259566" lon="11.003021139443216"><ele>1544.7142857142858</ele><time>2026-04-26T10:11:39.999Z</time></trkpt><trkpt lat="45.68990074708442" lon="11.002980442003128"><ele>1545.857142857143</ele><time>2026-04-26T10:11:46.999Z</time></trkpt><trkpt lat="45.68995037234185" lon="11.002922969844091"><ele>1547.0</ele><time>2026-04-26T10:11:53.999Z</time></trkpt><trkpt lat="45.690015122433316" lon="11.002902875852973"><ele>1547.0</ele><time>2026-04-26T10:12:00.999Z</time></trkpt><trkpt lat="45.690077460840705" lon="11.002859481550544"><ele>1547.0</ele><time>2026-04-26T10:12:07.999Z</time></trkpt><trkpt lat="45.690125124778326" lon="11.002794709256722"><ele>1547.0</ele><time>2026-04-26T10:12:18Z</time></trkpt><trkpt lat="45.69018639487092" lon="11.002753751994058"><ele>1547.0</ele><time>2026-04-26T10:12:25Z</time></trkpt><trkpt lat="45.690238567862934" lon="11.002697588829166"><ele>1547.0</ele><time>2026-04-26T10:12:33Z</time></trkpt><trkpt lat="45.690303743776205" lon="11.002667296663843"><ele>1547.0</ele><time>2026-04-26T10:12:40Z</time></trkpt><trkpt lat="45.6903697441131" lon="11.00262594499874"><ele>1547.0</ele><time>2026-04-26T10:12:49Z</time></trkpt><trkpt lat="45.69043121137153" lon="11.002604699681513"><ele>1548.2857142857142</ele><time>2026-04-26T10:12:56Z</time></trkpt><trkpt lat="45.690496394534414" lon="11.002558625663172"><ele>1549.5714285714284</ele><time>2026-04-26T10:13:06Z</time></trkpt><trkpt lat="45.69056081418244" lon="11.002543354792074"><ele>1550.857142857143</ele><time>2026-04-26T10:13:14Z</time></trkpt><trkpt lat="45.69062987715681" lon="11.002538140717688"><ele>1552.142857142857</ele><time>2026-04-26T10:13:22Z</time></trkpt><trkpt lat="45.69069809522343" lon="11.0025344183471"><ele>1553.4285714285713</ele><time>2026-04-26T10:13:31Z</time></trkpt><trkpt lat="45.69076188849546" lon="11.002575634778715"><ele>1554.7142857142858</ele><time>2026-04-26T10:13:40Z</time></trkpt><trkpt lat="45.690833250768996" lon="11.00258196273994"><ele>1556.0</ele><time>2026-04-26T10:13:47Z</time></trkpt><trkpt lat="45.69090016554938" lon="11.002575911019104"><ele>1556.0</ele><time>2026-04-26T10:13:56.999Z</time></trkpt><trkpt lat="45.69096652090913" lon="11.00257712773291"><ele>1556.0</ele><time>2026-04-26T10:14:03.999Z</time></trkpt><trkpt lat="45.69103044975397" lon="11.002593392677605"><ele>1556.0</ele><time>2026-04-26T10:14:13.999Z</time></trkpt><trkpt lat="45.69109420841426" lon="11.00262912081451"><ele>1556.0</ele><time>2026-04-26T10:14:22.001Z</time></trkpt><trkpt lat="45.691162712563" lon="11.002650995650752"><ele>1556.0</ele><time>2026-04-26T10:14:33Z</time></trkpt><trkpt lat="45.69123054030681" lon="11.002675029994895"><ele>1556.0</ele><time>2026-04-26T10:14:42Z</time></trkpt><trkpt lat="45.69129307245682" lon="11.0026869018988"><ele>1556.0</ele><time>2026-04-26T10:14:49Z</time></trkpt><trkpt lat="45.691371368069355" lon="11.002736619772682"><ele>1556.857142857143</ele><time>2026-04-26T10:15:34Z</time></trkpt><trkpt lat="45.691406088809856" lon="11.002813654546276"><ele>1557.7142857142856</ele><time>2026-04-26T10:15:43Z</time></trkpt><trkpt lat="45.69146743886456" lon="11.002843498050316"><ele>1558.5714285714284</ele><time>2026-04-26T10:15:50Z</time></trkpt><trkpt lat="45.69153491403124" lon="11.002874188532747"><ele>1559.4285714285716</ele><time>2026-04-26T10:15:57Z</time></trkpt><trkpt lat="45.69159802407755" lon="11.002908801533788"><ele>1560.2857142857142</ele><time>2026-04-26T10:16:04Z</time></trkpt><trkpt lat="45.69166377455928" lon="11.002925229763743"><ele>1561.142857142857</ele><time>2026-04-26T10:16:11Z</time></trkpt><trkpt lat="45.691736501777655" lon="11.002902921772245"><ele>1562.0</ele><time>2026-04-26T10:16:26.001Z</time></trkpt><trkpt lat="45.69180659195471" lon="11.002899419225166"><ele>1562.0</ele><time>2026-04-26T10:16:39.001Z</time></trkpt><trkpt lat="45.69186985518733" lon="11.002895635576225"><ele>1562.0</ele><time>2026-04-26T10:16:46Z</time></trkpt><trkpt lat="45.691925907608315" lon="11.00285177909663"><ele>1562.0</ele><time>2026-04-26T10:16:53Z</time></trkpt><trkpt lat="45.69198448441832" lon="11.002795063733815"><ele>1562.0</ele><time>2026-04-26T10:17:01Z</time></trkpt><trkpt lat="45.69203817789052" lon="11.002745084972819"><ele>1562.0</ele><time>2026-04-26T10:17:06Z</time></trkpt><trkpt lat="45.69208684409347" lon="11.002676102280208"><ele>1562.0</ele><time>2026-04-26T10:17:14Z</time></trkpt><trkpt lat="45.692141866714664" lon="11.002614089023353"><ele>1562.0</ele><time>2026-04-26T10:17:33Z</time></trkpt><trkpt lat="45.692202793999364" lon="11.002573415778999"><ele>1562.857142857143</ele><time>2026-04-26T10:17:40Z</time></trkpt><trkpt lat="45.69225466771144" lon="11.00251778190393"><ele>1563.7142857142858</ele><time>2026-04-26T10:17:55Z</time></trkpt><trkpt lat="45.692285923257806" lon="11.002598450867675"><ele>1564.5714285714284</ele><time>2026-04-26T10:19:15Z</time></trkpt><trkpt lat="45.69234925889326" lon="11.002591782929933"><ele>1565.4285714285716</ele><time>2026-04-26T10:19:22Z</time></trkpt><trkpt lat="45.692412953869365" lon="11.002584581899225"><ele>1566.2857142857142</ele><time>2026-04-26T10:21:46Z</time></trkpt><trkpt lat="45.69247859567544" lon="11.002597324421211"><ele>1567.142857142857</ele><time>2026-04-26T10:21:52.999Z</time></trkpt><trkpt lat="45.692540518121085" lon="11.002618822425639"><ele>1568.0</ele><time>2026-04-26T10:22:00.999Z</time></trkpt><trkpt lat="45.69261035439329" lon="11.002609362711329"><ele>1568.0</ele><time>2026-04-26T10:22:07.999Z</time></trkpt><trkpt lat="45.69268179276057" lon="11.002618457797336"><ele>1568.0</ele><time>2026-04-26T10:22:14.999Z</time></trkpt><trkpt lat="45.69273841543317" lon="11.00267237045576"><ele>1568.0</ele><time>2026-04-26T10:22:20.999Z</time></trkpt><trkpt lat="45.69280630511931" lon="11.002699069207909"><ele>1568.0</ele><time>2026-04-26T10:22:28.999Z</time></trkpt><trkpt lat="45.69285348358716" lon="11.002780051079313"><ele>1568.0</ele><time>2026-04-26T10:22:35.999Z</time></trkpt><trkpt lat="45.69290882188034" lon="11.002825338158551"><ele>1568.0</ele><time>2026-04-26T10:22:42Z</time></trkpt><trkpt lat="45.692961640213866" lon="11.002874905958272"><ele>1568.0</ele><time>2026-04-26T10:22:49Z</time></trkpt><trkpt lat="45.69301435810681" lon="11.002928337354614"><ele>1567.4285714285713</ele><time>2026-04-26T10:23:01Z</time></trkpt><trkpt lat="45.69307500059212" lon="11.002964333093237"><ele>1566.857142857143</ele><time>2026-04-26T10:23:09Z</time></trkpt><trkpt lat="45.69310639324549" lon="11.00304440381863"><ele>1566.2857142857142</ele><time>2026-04-26T10:23:17Z</time></trkpt><trkpt lat="45.693131407532384" lon="11.003137443301984"><ele>1565.7142857142858</ele><time>2026-04-26T10:23:27Z</time></trkpt><trkpt lat="45.69316194774625" lon="11.003225747737108"><ele>1565.142857142857</ele><time>2026-04-26T10:23:35Z</time></trkpt><trkpt lat="45.69317480192096" lon="11.003319838366782"><ele>1564.5714285714284</ele><time>2026-04-26T10:23:42.999Z</time></trkpt><trkpt lat="45.69318327909162" lon="11.003416229875414"><ele>1564.0</ele><time>2026-04-26T10:23:50.999Z</time></trkpt><trkpt lat="45.693175992746234" lon="11.003516827507031"><ele>1565.142857142857</ele><time>2026-04-26T10:23:57.999Z</time></trkpt><trkpt lat="45.69319215790586" lon="11.003623112952734"><ele>1566.2857142857142</ele><time>2026-04-26T10:24:08.999Z</time></trkpt><trkpt lat="45.693199923546175" lon="11.003723462496373"><ele>1567.4285714285716</ele><time>2026-04-26T10:24:16.999Z</time></trkpt><trkpt lat="45.693200625759" lon="11.003814800772965"><ele>1568.5714285714284</ele><time>2026-04-26T10:24:45.997Z</time></trkpt><trkpt lat="45.693195932845846" lon="11.003906596700942"><ele>1569.7142857142858</ele><time>2026-04-26T10:24:52.997Z</time></trkpt><trkpt lat="45.693189748030775" lon="11.004007459771271"><ele>1570.857142857143</ele><time>2026-04-26T10:24:58.998Z</time></trkpt><trkpt lat="45.69319351633078" lon="11.004110270822826"><ele>1572.0</ele><time>2026-04-26T10:25:05.998Z</time></trkpt><trkpt lat="45.69318889213944" lon="11.004201387759208"><ele>1573.1428571428573</ele><time>2026-04-26T10:25:11.998Z</time></trkpt><trkpt lat="45.693186256332645" lon="11.004294414370479"><ele>1574.2857142857142</ele><time>2026-04-26T10:25:18.998Z</time></trkpt><trkpt lat="45.693189939631374" lon="11.004390660595124"><ele>1575.4285714285716</ele><time>2026-04-26T10:25:24.999Z</time></trkpt><trkpt lat="45.693205145651675" lon="11.004491079373265"><ele>1576.5714285714287</ele><time>2026-04-26T10:25:31.999Z</time></trkpt><trkpt lat="45.6932487389217" lon="11.00456020157726"><ele>1577.7142857142858</ele><time>2026-04-26T10:25:37.999Z</time></trkpt><trkpt lat="45.69327413288898" lon="11.004643290356139"><ele>1578.857142857143</ele><time>2026-04-26T10:25:44.999Z</time></trkpt><trkpt lat="45.693306551128565" lon="11.00472792049411"><ele>1580.0</ele><time>2026-04-26T10:25:50.999Z</time></trkpt><trkpt lat="45.69334907658765" lon="11.0048074990631"><ele>1610.0</ele><time>2026-04-26T10:25:57.999Z</time></trkpt><trkpt lat="45.69635714164898" lon="11.007630225582156"><ele>1610.0</ele><time>2026-04-26T10:37:39Z</time></trkpt><trkpt lat="45.69620495356822" lon="11.007728371868785"><ele>1610.0</ele><time>2026-04-26T10:38:46.999Z</time></trkpt><trkpt lat="45.69616716848721" lon="11.00780628493541"><ele>1610.0</ele><time>2026-04-26T10:38:53.999Z</time></trkpt><trkpt lat="45.696168923057634" lon="11.007906157516555"><ele>1610.0</ele><time>2026-04-26T10:38:59.999Z</time></trkpt><trkpt lat="45.696284633354736" lon="11.008021108916296"><ele>1610.0</ele><time>2026-04-26T10:39:14.999Z</time></trkpt><trkpt lat="45.69634827749982" lon="11.00806170191655"><ele>1610.0</ele><time>2026-04-26T10:39:20.999Z</time></trkpt><trkpt lat="45.69624108748119" lon="11.008035949042394"><ele>1610.0</ele><time>2026-04-26T10:44:48Z</time></trkpt><trkpt lat="45.69629161878387" lon="11.008107649147712"><ele>1610.0</ele><time>2026-04-26T10:45:36.999Z</time></trkpt><trkpt lat="45.696192504561694" lon="11.00789163355904"><ele>1610.0</ele><time>2026-04-26T10:57:51.001Z</time></trkpt><trkpt lat="45.6962301816683" lon="11.007751520395331"><ele>1610.0</ele><time>2026-04-26T10:58:02.001Z</time></trkpt><trkpt lat="45.69629759982732" lon="11.007767613303756"><ele>1610.0</ele><time>2026-04-26T10:58:10.001Z</time></trkpt><trkpt lat="45.696366243832514" lon="11.007747328201036"><ele>1610.0</ele><time>2026-04-26T10:58:17.002Z</time></trkpt><trkpt lat="45.696508443366824" lon="11.007720327449702"><ele>1610.0</ele><time>2026-04-26T10:58:37.001Z</time></trkpt><trkpt lat="45.69657662606342" lon="11.007761760828114"><ele>1610.0</ele><time>2026-04-26T10:58:44.001Z</time></trkpt><trkpt lat="45.69667636076554" lon="11.007887871444757"><ele>1610.0</ele><time>2026-04-26T10:59:00.001Z</time></trkpt><trkpt lat="45.69673067955282" lon="11.007945806402105"><ele>1610.0</ele><time>2026-04-26T10:59:08.001Z</time></trkpt><trkpt lat="45.69686095744234" lon="11.007997867571342"><ele>1610.0</ele><time>2026-04-26T10:59:24.001Z</time></trkpt><trkpt lat="45.69693022040727" lon="11.008017855402013"><ele>1610.0</ele><time>2026-04-26T10:59:47.001Z</time></trkpt><trkpt lat="45.697052624804314" lon="11.008064099137698"><ele>1610.0</ele><time>2026-04-26T11:00:08.002Z</time></trkpt><trkpt lat="45.697186402409784" lon="11.008042028057949"><ele>1609.4</ele><time>2026-04-26T11:00:30.002Z</time></trkpt><trkpt lat="45.69733215743957" lon="11.008058048902567"><ele>1608.8</ele><time>2026-04-26T11:00:49.001Z</time></trkpt><trkpt lat="45.69740347766756" lon="11.008054433404855"><ele>1608.1999999999998</ele><time>2026-04-26T11:00:58.001Z</time></trkpt><trkpt lat="45.69753268509429" lon="11.00806713971901"><ele>1607.6</ele><time>2026-04-26T11:01:17.001Z</time></trkpt><trkpt lat="45.69760016246543" lon="11.008074919646832"><ele>1607.0</ele><time>2026-04-26T11:01:26.001Z</time></trkpt><trkpt lat="45.69774247957014" lon="11.008062515290797"><ele>1607.6</ele><time>2026-04-26T11:01:46.001Z</time></trkpt><trkpt lat="45.69780898261571" lon="11.00806849180843"><ele>1608.1999999999998</ele><time>2026-04-26T11:01:59.001Z</time></trkpt><trkpt lat="45.69793861840679" lon="11.008076007772068"><ele>1608.8</ele><time>2026-04-26T11:02:17.001Z</time></trkpt><trkpt lat="45.69800973785977" lon="11.00807941489181"><ele>1609.4</ele><time>2026-04-26T11:02:26.001Z</time></trkpt><trkpt lat="45.69813975712007" lon="11.008060905014165"><ele>1610.0</ele><time>2026-04-26T11:02:41.001Z</time></trkpt><trkpt lat="45.698209668173845" lon="11.008070276731848"><ele>1610.0</ele><time>2026-04-26T11:02:49.001Z</time></trkpt><trkpt lat="45.69834192219737" lon="11.008113977125976"><ele>1610.0</ele><time>2026-04-26T11:03:08.001Z</time></trkpt><trkpt lat="45.69840644914096" lon="11.008100120075259"><ele>1610.0</ele><time>2026-04-26T11:03:14.001Z</time></trkpt><trkpt lat="45.698733877607275" lon="11.008236611399767"><ele>1609.0</ele><time>2026-04-26T11:03:57.001Z</time></trkpt><trkpt lat="45.6987906622781" lon="11.008285200970352"><ele>1608.0</ele><time>2026-04-26T11:04:07Z</time></trkpt><trkpt lat="45.698914544584284" lon="11.008379551056551"><ele>1607.0</ele><time>2026-04-26T11:04:23Z</time></trkpt><trkpt lat="45.698969247994114" lon="11.008429222039744"><ele>1606.0</ele><time>2026-04-26T11:04:32Z</time></trkpt><trkpt lat="45.69908079261337" lon="11.008548999595623"><ele>1605.0</ele><time>2026-04-26T11:04:50.999Z</time></trkpt><trkpt lat="45.69914810350181" lon="11.008578311127991"><ele>1609.0</ele><time>2026-04-26T11:04:58.999Z</time></trkpt><trkpt lat="45.699281555077036" lon="11.008596481389992"><ele>1613.0</ele><time>2026-04-26T11:05:15Z</time></trkpt><trkpt lat="45.699338581757615" lon="11.00864587707648"><ele>1617.0</ele><time>2026-04-26T11:05:36Z</time></trkpt><trkpt lat="45.699462885448376" lon="11.00862502794231"><ele>1621.0</ele><time>2026-04-26T11:05:48Z</time></trkpt><trkpt lat="45.69954446583874" lon="11.008624267427663"><ele>1625.0</ele><time>2026-04-26T11:05:57Z</time></trkpt><trkpt lat="45.69967964877672" lon="11.008605937823335"><ele>1625.6</ele><time>2026-04-26T11:06:16Z</time></trkpt><trkpt lat="45.699745148328866" lon="11.008637687423617"><ele>1626.2</ele><time>2026-04-26T11:06:29Z</time></trkpt><trkpt lat="45.69985339703336" lon="11.008743407723586"><ele>1626.8000000000002</ele><time>2026-04-26T11:06:46Z</time></trkpt><trkpt lat="45.69990975608143" lon="11.008786255262276"><ele>1627.4</ele><time>2026-04-26T11:06:56Z</time></trkpt><trkpt lat="45.70002861720552" lon="11.008889085558955"><ele>1628.0</ele><time>2026-04-26T11:07:18Z</time></trkpt><trkpt lat="45.70012774897027" lon="11.009008413769443"><ele>1628.0</ele><time>2026-04-26T11:07:36Z</time></trkpt><trkpt lat="45.70017389332378" lon="11.00907081969352"><ele>1628.0</ele><time>2026-04-26T11:07:46Z</time></trkpt><trkpt lat="45.7002716250566" lon="11.009188834179454"><ele>1628.0</ele><time>2026-04-26T11:08:01Z</time></trkpt><trkpt lat="45.70032763894797" lon="11.009244315461476"><ele>1628.0</ele><time>2026-04-26T11:08:09Z</time></trkpt><trkpt lat="45.700441305908406" lon="11.009352502895156"><ele>1628.0</ele><time>2026-04-26T11:08:24Z</time></trkpt><trkpt lat="45.70050646701923" lon="11.00940379629048"><ele>1630.0</ele><time>2026-04-26T11:08:31Z</time></trkpt><trkpt lat="45.7006342071647" lon="11.00945593591221"><ele>1632.0</ele><time>2026-04-26T11:08:46Z</time></trkpt><trkpt lat="45.70070167631211" lon="11.009453166024747"><ele>1634.0</ele><time>2026-04-26T11:08:55.001Z</time></trkpt><trkpt lat="45.70083996502631" lon="11.009475440493302"><ele>1636.0</ele><time>2026-04-26T11:09:13.001Z</time></trkpt><trkpt lat="45.70090427631638" lon="11.00949658240053"><ele>1638.0</ele><time>2026-04-26T11:09:21Z</time></trkpt><trkpt lat="45.70102678677388" lon="11.009560266216258"><ele>1638.6000000000001</ele><time>2026-04-26T11:09:36Z</time></trkpt><trkpt lat="45.70108739574868" lon="11.009591929132599"><ele>1639.2</ele><time>2026-04-26T11:09:44Z</time></trkpt><trkpt lat="45.70121832765316" lon="11.00967811011326"><ele>1639.8</ele><time>2026-04-26T11:09:59Z</time></trkpt><trkpt lat="45.70128312707367" lon="11.009716028622915"><ele>1640.4</ele><time>2026-04-26T11:10:06Z</time></trkpt><trkpt lat="45.701412634183555" lon="11.009757672042133"><ele>1641.0</ele><time>2026-04-26T11:10:24Z</time></trkpt><trkpt lat="45.70148148711214" lon="11.009780460209274"><ele>1641.0</ele><time>2026-04-26T11:10:34Z</time></trkpt><trkpt lat="45.70161295550026" lon="11.009831163218228"><ele>1641.0</ele><time>2026-04-26T11:10:49Z</time></trkpt><trkpt lat="45.701680903210445" lon="11.009867923723965"><ele>1641.0</ele><time>2026-04-26T11:10:57.997Z</time></trkpt><trkpt lat="45.70183707870342" lon="11.00989498857143"><ele>1641.0</ele><time>2026-04-26T11:11:17.998Z</time></trkpt><trkpt lat="45.701906294342415" lon="11.009901633024233"><ele>1641.0</ele><time>2026-04-26T11:11:27.999Z</time></trkpt><trkpt lat="45.70203461830232" lon="11.00990942153855"><ele>1642.75</ele><time>2026-04-26T11:11:43.999Z</time></trkpt><trkpt lat="45.70209529770866" lon="11.009936720071051"><ele>1644.5</ele><time>2026-04-26T11:11:51.999Z</time></trkpt><trkpt lat="45.70224320200682" lon="11.009902552681268"><ele>1646.25</ele><time>2026-04-26T11:12:11.999Z</time></trkpt><trkpt lat="45.70233931738848" lon="11.009968795257107"><ele>1648.0</ele><time>2026-04-26T11:12:20.999Z</time></trkpt><trkpt lat="45.702479028868105" lon="11.009985820809332"><ele>1649.2</ele><time>2026-04-26T11:12:35.999Z</time></trkpt><trkpt lat="45.702535292991364" lon="11.010031698458786"><ele>1650.4</ele><time>2026-04-26T11:12:43.999Z</time></trkpt><trkpt lat="45.70267345341121" lon="11.010076248575212"><ele>1651.6000000000001</ele><time>2026-04-26T11:12:58.999Z</time></trkpt><trkpt lat="45.70273887295437" lon="11.010111913540085"><ele>1652.8000000000002</ele><time>2026-04-26T11:13:07.996Z</time></trkpt><trkpt lat="45.70287277971112" lon="11.010198324392029"><ele>1654.0</ele><time>2026-04-26T11:13:21.997Z</time></trkpt><trkpt lat="45.70294217158967" lon="11.010259338649224"><ele>1656.0</ele><time>2026-04-26T11:13:28.998Z</time></trkpt><trkpt lat="45.70305752386037" lon="11.01036702953077"><ele>1658.0</ele><time>2026-04-26T11:13:45.999Z</time></trkpt><trkpt lat="45.70311222336173" lon="11.010412475922957"><ele>1660.0</ele><time>2026-04-26T11:13:50.999Z</time></trkpt><trkpt lat="45.70320613631192" lon="11.010533479073887"><ele>1662.0</ele><time>2026-04-26T11:14:05.999Z</time></trkpt><trkpt lat="45.70325994377055" lon="11.010588878018646"><ele>1664.0</ele><time>2026-04-26T11:14:12.999Z</time></trkpt><trkpt lat="45.70337577753552" lon="11.010695107538675"><ele>1664.0</ele><time>2026-04-26T11:14:31Z</time></trkpt><trkpt lat="45.70343847819262" lon="11.01073128027624"><ele>1664.0</ele><time>2026-04-26T11:14:40Z</time></trkpt><trkpt lat="45.70356982948047" lon="11.01075049542839"><ele>1664.0</ele><time>2026-04-26T11:14:59Z</time></trkpt><trkpt lat="45.703641511496166" lon="11.010744594692541"><ele>1664.0</ele><time>2026-04-26T11:15:16.997Z</time></trkpt><trkpt lat="45.70377340333556" lon="11.010718783412248"><ele>1664.0</ele><time>2026-04-26T11:15:33.999Z</time></trkpt><trkpt lat="45.70384314845707" lon="11.01073215979797"><ele>1665.25</ele><time>2026-04-26T11:15:41.999Z</time></trkpt><trkpt lat="45.70397957104969" lon="11.010794027245069"><ele>1666.5</ele><time>2026-04-26T11:16:01Z</time></trkpt><trkpt lat="45.70404985527388" lon="11.010788316994876"><ele>1667.75</ele><time>2026-04-26T11:16:05Z</time></trkpt><trkpt lat="45.70418734129569" lon="11.010855800164379"><ele>1669.0</ele><time>2026-04-26T11:16:27Z</time></trkpt><trkpt lat="45.704317703333786" lon="11.010911530072912"><ele>1679.0</ele><time>2026-04-26T11:16:39.001Z</time></trkpt><trkpt lat="45.70441025853249" lon="11.010950539944332"><ele>1679.0</ele><time>2026-04-26T11:16:52.001Z</time></trkpt><trkpt lat="45.704554661145124" lon="11.01100704119896"><ele>1684.0</ele><time>2026-04-26T11:17:14.997Z</time></trkpt></trkseg><trkseg><trkpt lat="45.71848194584783" lon="11.016841772953995"><ele>1758.6</ele><time>2026-04-26T13:22:54.029Z</time></trkpt></trkseg></trk></gpx>